Pagrindinis puslapis
METAR-TAF:

METAR-TAF

Oro uostai :

Rionė, Danija

platuma: 55-04N, ilguma: 014-45E, Aukštis: 16 m

Dabartinis oras

Ataskaita buvo paskelbta 17 minutes, ne 06:50 UTC
Vėjas 6 kt iš Vakarų, svyruoja nuo Vakarų/Pietvakarių ir Šiaurės Vakarų
Temperatūra 14°C
Drėgmė 88%
Slėgis 1020 hPa
Matomumas: 8000 m

METAR: EKRN 240650Z AUTO 28006KT 250V310 8000 FEW005/// 14/12 Q1020

Laikas: 09:07 (07:07 UTC)

Prognozė

Ataskaita buvo paskelbta 2 valandos ir 3 minutes, ne 05:04 UTC
Prognozė galioja nuo 24 metu 06 UTC su 24 metu 15 UTC
Vėjas 10 kt iš Vakarų/Pietvakarių
Matomumas: 4000 m
Išsisklaidę debesys ne aukštis 2000 ft
rūkana
Tapsmas
nuo 24 metu 06 UTC su 24 metu 07 UTC
Matomumas 10 km arba daugiau

TAF: EKRN 240504Z 2406/2415 25010KT 4000 BR SCT020 BECMG 2406/2407 9999 NSW

Orai ataskaitas ir orų prognozės (METAR, TAF).

turimą stotys yra geltonos ir raudonos taškus žemėlapyje.

Perkelti pele per norėdami pamatyti stoties vardą.

Tada spustelėkite, norėdami matyti oro stebėjimo ir prognozės.

Norėdami pakeisti žemėlapį: spustelėkite ant žalios mygtukų su juodo kryžiaus žemyn,; žalią mygtuką su brūkšneliu, jei norite nutolinti; arba žalių rodyklių gretimoms žemėlapius.


METAR-TAF: